createdAt,value
2022-12-01T00:00:57.667Z,4.86
2022-12-01T00:03:31.073Z,4.82
2022-12-01T00:06:02.921Z,4.80
2022-12-01T00:08:34.719Z,4.79
2022-12-01T00:11:09.345Z,4.76
2022-12-01T00:13:40.186Z,4.72
2022-12-01T00:16:16.819Z,4.69
2022-12-01T00:18:50.356Z,4.66
2022-12-01T00:21:23.354Z,4.65
2022-12-01T00:23:56.295Z,4.62
2022-12-01T00:26:28.332Z,4.60
2022-12-01T00:29:00.558Z,4.57
2022-12-01T00:31:40.411Z,4.55
2022-12-01T00:34:22.536Z,4.54
2022-12-01T00:36:53.334Z,4.52
2022-12-01T00:39:23.074Z,4.52
2022-12-01T00:41:53.583Z,4.50
2022-12-01T00:44:24.973Z,4.48
2022-12-01T00:46:54.061Z,4.47
2022-12-01T00:49:24.664Z,4.45
2022-12-01T00:51:55.421Z,4.43
2022-12-01T00:54:26.197Z,4.42
2022-12-01T00:56:56.819Z,4.41
2022-12-01T00:59:27.579Z,4.40
2022-12-01T01:01:58.149Z,4.39
2022-12-01T01:04:30.313Z,4.38
2022-12-01T01:07:00.882Z,4.37
2022-12-01T01:09:32.330Z,4.36
2022-12-01T01:12:01.352Z,4.34
2022-12-01T01:14:32.137Z,4.32
2022-12-01T01:17:02.709Z,4.30
2022-12-01T01:19:33.390Z,4.30
2022-12-01T01:22:04.390Z,4.28
2022-12-01T01:24:35.032Z,4.27
2022-12-01T01:27:07.034Z,4.26
2022-12-01T01:29:37.837Z,4.25
2022-12-01T01:32:08.687Z,4.23
2022-12-01T01:34:39.164Z,4.21
2022-12-01T01:37:09.691Z,4.21
2022-12-01T01:39:40.172Z,4.21
2022-12-01T01:42:12.320Z,4.19
2022-12-01T01:44:57.031Z,4.18
2022-12-01T01:47:31.828Z,4.19
2022-12-01T01:50:09.291Z,4.18
2022-12-01T01:52:45.983Z,4.19
2022-12-01T01:55:17.578Z,4.18
2022-12-01T01:57:48.843Z,4.18
2022-12-01T02:00:22.229Z,4.18
2022-12-01T02:02:54.418Z,4.17
2022-12-01T02:05:28.346Z,4.16
2022-12-01T02:08:00.673Z,4.15
2022-12-01T02:10:39.060Z,4.14
2022-12-01T02:13:18.571Z,4.13
2022-12-01T02:15:59.136Z,4.12
2022-12-01T02:18:38.877Z,4.12
2022-12-01T02:21:26.200Z,4.12
2022-12-01T02:24:30.386Z,4.12
2022-12-01T02:27:07.365Z,4.11
2022-12-01T02:30:03.280Z,4.11
2022-12-01T02:32:42.363Z,4.10
2022-12-01T02:35:17.724Z,4.10
2022-12-01T02:37:58.711Z,4.10
2022-12-01T02:40:32.800Z,4.09
2022-12-01T02:43:10.547Z,4.08
2022-12-01T02:45:46.730Z,4.07
2022-12-01T02:48:22.475Z,4.06
2022-12-01T02:50:55.388Z,4.06
2022-12-01T02:53:26.480Z,4.05
2022-12-01T02:55:59.844Z,4.03
2022-12-01T02:58:32.376Z,4.02
2022-12-01T03:01:19.157Z,4.02
2022-12-01T03:04:12.612Z,4.01
2022-12-01T03:06:54.463Z,3.99
2022-12-01T03:09:42.463Z,3.98
2022-12-01T03:12:22.047Z,3.98
2022-12-01T03:15:03.440Z,3.96
2022-12-01T03:17:41.481Z,3.93
2022-12-01T03:20:17.897Z,3.90
2022-12-01T03:22:55.420Z,3.88
2022-12-01T03:25:29.712Z,3.87
2022-12-01T03:30:56.573Z,3.83
2022-12-01T03:33:32.696Z,3.81
2022-12-01T03:36:07.714Z,3.79
2022-12-01T03:38:41.099Z,3.78
2022-12-01T03:41:17.783Z,3.77
2022-12-01T03:43:55.497Z,3.76
2022-12-01T03:46:35.393Z,3.74
2022-12-01T03:49:08.882Z,3.74
2022-12-01T03:51:49.366Z,3.73
2022-12-01T03:54:27.289Z,3.71
2022-12-01T03:57:02.097Z,3.69
2022-12-01T03:59:35.962Z,3.66
2022-12-01T04:02:08.878Z,3.63
2022-12-01T04:04:40.151Z,3.61
2022-12-01T04:07:13.472Z,3.58
2022-12-01T04:09:44.432Z,3.54
2022-12-01T04:12:32.907Z,3.50
2022-12-01T04:15:05.654Z,3.48
2022-12-01T04:17:37.062Z,3.46
2022-12-01T04:20:07.676Z,3.45
2022-12-01T04:22:38.279Z,3.44
2022-12-01T04:25:10.842Z,3.43
2022-12-01T04:27:41.540Z,3.41
2022-12-01T04:30:13.684Z,3.39
2022-12-01T04:32:45.302Z,3.38
2022-12-01T04:35:16.161Z,3.36
2022-12-01T04:37:46.630Z,3.35
2022-12-01T04:40:19.010Z,3.34
2022-12-01T04:42:49.963Z,3.33
2022-12-01T04:45:20.683Z,3.31
2022-12-01T04:47:53.242Z,3.32
2022-12-01T04:50:23.759Z,3.31
2022-12-01T04:52:54.239Z,3.31
2022-12-01T04:55:25.823Z,3.31
2022-12-01T04:57:56.595Z,3.31
2022-12-01T05:00:27.320Z,3.30
2022-12-01T05:02:57.956Z,3.29
2022-12-01T05:05:29.391Z,3.28
2022-12-01T05:07:59.228Z,3.26
2022-12-01T05:10:29.994Z,3.25
2022-12-01T05:13:00.510Z,3.23
2022-12-01T05:15:30.985Z,3.21
2022-12-01T05:18:01.499Z,3.19
2022-12-01T05:20:49.830Z,3.19
2022-12-01T05:23:20.413Z,3.18
2022-12-01T05:25:51.276Z,3.16
2022-12-01T05:28:23.182Z,3.14
2022-12-01T05:30:54.658Z,3.14
2022-12-01T05:33:26.873Z,3.13
2022-12-01T05:35:58.105Z,3.12
2022-12-01T05:38:28.629Z,3.11
2022-12-01T05:40:59.245Z,3.09
2022-12-01T05:43:29.924Z,3.07
2022-12-01T05:46:02.136Z,3.07
2022-12-01T05:48:32.850Z,3.08
2022-12-01T05:51:11.487Z,3.07
2022-12-01T05:53:46.165Z,3.06
2022-12-01T05:56:16.906Z,3.04
2022-12-01T05:58:58.360Z,3.01
2022-12-01T06:01:29.801Z,2.99
2022-12-01T06:04:00.573Z,2.98
2022-12-01T06:06:31.546Z,2.96
2022-12-01T06:09:02.242Z,2.94
2022-12-01T06:11:32.732Z,2.91
2022-12-01T06:14:03.503Z,2.88
2022-12-01T06:16:34.384Z,2.86
2022-12-01T06:19:08.098Z,2.85
2022-12-01T06:21:38.751Z,2.83
2022-12-01T06:24:11.276Z,2.82
2022-12-01T06:26:41.967Z,2.82
2022-12-01T06:29:13.460Z,2.80
2022-12-01T06:31:42.994Z,2.79
2022-12-01T06:34:14.700Z,2.78
2022-12-01T06:36:45.558Z,2.76
2022-12-01T06:39:17.591Z,2.75
2022-12-01T06:41:48.314Z,2.74
2022-12-01T06:44:19.234Z,2.75
2022-12-01T06:46:52.958Z,2.75
2022-12-01T06:49:23.620Z,2.76
2022-12-01T06:51:54.286Z,2.76
2022-12-01T06:54:24.977Z,2.75
2022-12-01T06:56:55.542Z,2.75
2022-12-01T06:59:26.372Z,2.76
2022-12-01T07:01:57.893Z,2.77
2022-12-01T07:04:28.937Z,2.78
2022-12-01T07:06:59.728Z,2.79
2022-12-01T07:09:30.160Z,2.80
2022-12-01T07:12:00.609Z,2.81
2022-12-01T07:14:31.779Z,2.82
2022-12-01T07:17:02.738Z,2.82
2022-12-01T07:19:33.700Z,2.83
2022-12-01T07:22:04.453Z,2.84
2022-12-01T07:24:34.825Z,2.84
2022-12-01T07:27:05.471Z,2.84
2022-12-01T07:29:36.270Z,2.86
2022-12-01T07:32:07.190Z,2.87
2022-12-01T07:34:37.859Z,2.88
2022-12-01T07:37:08.454Z,2.88
2022-12-01T07:39:39.207Z,2.89
2022-12-01T07:42:09.840Z,2.91
2022-12-01T07:44:40.321Z,2.92
2022-12-01T07:47:11.008Z,2.93
2022-12-01T07:49:41.780Z,2.94
2022-12-01T07:52:12.377Z,2.97
2022-12-01T07:54:43.021Z,2.98
2022-12-01T07:57:15.089Z,3.00
2022-12-01T07:59:45.610Z,3.02
2022-12-01T08:02:16.501Z,3.05
2022-12-01T08:04:47.179Z,3.07
2022-12-01T08:07:17.775Z,3.08
2022-12-01T08:09:48.463Z,3.08
2022-12-01T08:12:19.320Z,3.10
2022-12-01T08:14:50.028Z,3.12
2022-12-01T08:17:20.768Z,3.15
2022-12-01T08:19:51.554Z,3.18
2022-12-01T08:22:22.410Z,3.22
2022-12-01T08:24:53.012Z,3.23
2022-12-01T08:27:23.633Z,3.26
2022-12-01T08:29:54.157Z,3.29
2022-12-01T08:32:24.622Z,3.32
2022-12-01T08:34:57.095Z,3.33
2022-12-01T08:37:27.883Z,3.33
2022-12-01T08:39:58.529Z,3.31
2022-12-01T08:42:29.110Z,3.33
2022-12-01T08:44:59.688Z,3.34
2022-12-01T08:47:31.534Z,3.35
2022-12-01T08:50:05.329Z,3.35
2022-12-01T08:52:36.269Z,3.36
2022-12-01T08:55:08.766Z,3.35
2022-12-01T08:57:39.251Z,3.36
2022-12-01T09:00:12.490Z,3.37
2022-12-01T09:02:43.148Z,3.39
2022-12-01T09:05:14.199Z,3.41
2022-12-01T09:08:04.923Z,3.43
2022-12-01T09:10:35.786Z,3.45
2022-12-01T09:13:06.558Z,3.49
2022-12-01T09:15:37.200Z,3.53
2022-12-01T09:18:08.311Z,3.56
2022-12-01T09:20:38.877Z,3.56
2022-12-01T09:23:09.465Z,3.56
2022-12-01T09:25:40.034Z,3.58
2022-12-01T09:28:10.507Z,3.59
2022-12-01T09:30:40.911Z,3.58
2022-12-01T09:33:11.544Z,3.59
2022-12-01T09:35:42.103Z,3.59
2022-12-01T09:38:12.833Z,3.60
2022-12-01T09:40:45.512Z,3.62
2022-12-01T09:43:20.632Z,3.63
2022-12-01T09:45:55.745Z,3.63
2022-12-01T09:48:32.354Z,3.61
2022-12-01T09:51:03.388Z,3.61
2022-12-01T09:53:33.999Z,3.62
2022-12-01T09:56:11.510Z,3.66
2022-12-01T09:58:45.170Z,3.68
2022-12-01T10:01:24.405Z,3.69
2022-12-01T10:04:02.518Z,3.71
2022-12-01T10:06:41.326Z,3.75
2022-12-01T10:09:22.071Z,3.80
2022-12-01T10:11:57.594Z,3.85
2022-12-01T10:14:38.072Z,3.88
2022-12-01T10:17:20.539Z,3.95
2022-12-01T10:19:57.473Z,3.98
2022-12-01T10:23:04.049Z,4.03
2022-12-01T10:25:44.977Z,4.09
2022-12-01T10:28:45.696Z,4.12
2022-12-01T10:31:22.150Z,4.15
2022-12-01T10:34:03.579Z,4.19
2022-12-01T10:36:35.551Z,4.21
2022-12-01T10:39:07.968Z,4.22
2022-12-01T10:41:40.731Z,4.22
2022-12-01T10:44:13.364Z,4.21
2022-12-01T10:46:50.358Z,4.21
2022-12-01T10:49:22.328Z,4.18
2022-12-01T10:51:55.885Z,4.21
2022-12-01T10:54:36.191Z,4.24
2022-12-01T10:57:14.948Z,4.28
2022-12-01T10:59:53.278Z,4.31
2022-12-01T11:02:27.412Z,4.34
2022-12-01T11:05:01.459Z,4.38
2022-12-01T11:07:34.729Z,4.40
2022-12-01T11:10:30.077Z,4.43
2022-12-01T11:13:04.424Z,4.46
2022-12-01T11:15:42.266Z,4.47
2022-12-01T11:18:29.305Z,4.50
2022-12-01T11:21:10.854Z,4.53
2022-12-01T11:23:46.199Z,4.53
2022-12-01T11:26:20.736Z,4.51
2022-12-01T11:28:57.119Z,4.47
2022-12-01T11:31:40.301Z,4.43
2022-12-01T11:34:21.910Z,4.42
2022-12-01T11:36:58.573Z,4.43
2022-12-01T11:39:32.409Z,4.43
2022-12-01T11:42:05.904Z,4.43
2022-12-01T11:44:51.449Z,4.44
2022-12-01T11:47:25.343Z,4.45
2022-12-01T11:49:59.125Z,4.49
2022-12-01T11:52:33.125Z,4.52
2022-12-01T11:55:20.861Z,4.53
2022-12-01T11:57:54.401Z,4.51
2022-12-01T12:00:28.699Z,4.51
2022-12-01T12:03:25.941Z,4.55
2022-12-01T12:09:29.041Z,4.60
2022-12-01T12:12:12.540Z,4.61
2022-12-01T12:14:56.202Z,4.63
2022-12-01T12:18:03.939Z,4.64
2022-12-01T12:20:43.755Z,4.65
2022-12-01T12:23:33.691Z,4.67
2022-12-01T12:26:15.459Z,4.67
2022-12-01T12:28:59.574Z,4.69
2022-12-01T12:31:40.823Z,4.71
2022-12-01T12:34:31.217Z,4.74
2022-12-01T12:37:19.265Z,4.74
2022-12-01T12:40:21.012Z,4.74
2022-12-01T12:42:55.946Z,4.77
2022-12-01T12:45:33.736Z,4.78
2022-12-01T12:48:20.985Z,4.81
2022-12-01T12:51:01.788Z,4.83
2022-12-01T12:53:49.325Z,4.85
2022-12-01T12:56:24.397Z,4.87
2022-12-01T12:59:02.343Z,4.88
2022-12-01T13:01:38.056Z,4.90
2022-12-01T13:04:15.050Z,4.96
2022-12-01T13:06:51.676Z,5.00
2022-12-01T13:09:28.347Z,5.04
2022-12-01T13:12:05.861Z,5.10
2022-12-01T13:14:40.801Z,5.14
2022-12-01T13:17:21.214Z,5.16
2022-12-01T13:19:52.172Z,5.17
2022-12-01T13:22:31.170Z,5.17
2022-12-01T13:25:02.330Z,5.16
2022-12-01T13:27:37.115Z,5.28
2022-12-01T13:30:17.890Z,5.46
2022-12-01T13:32:49.979Z,5.55
2022-12-01T13:35:30.572Z,5.57
2022-12-01T13:38:22.972Z,5.61
2022-12-01T13:41:23.625Z,5.72
2022-12-01T13:44:00.520Z,5.83
2022-12-01T13:46:34.520Z,5.92
2022-12-01T13:49:06.587Z,6.13
2022-12-01T13:52:08.058Z,6.26
2022-12-01T13:54:39.838Z,6.21
2022-12-01T13:57:15.200Z,6.29
2022-12-01T14:00:08.409Z,6.44
2022-12-01T14:02:45.971Z,6.45
2022-12-01T14:05:46.283Z,6.46
2022-12-01T14:08:23.427Z,6.46
2022-12-01T14:11:01.862Z,6.28
2022-12-01T14:13:45.674Z,6.08
2022-12-01T14:16:16.392Z,5.97
2022-12-01T14:18:53.822Z,5.79
2022-12-01T14:21:45.117Z,5.65
2022-12-01T14:24:27.976Z,5.50
2022-12-01T14:26:58.761Z,5.43
2022-12-01T14:29:35.113Z,5.37
2022-12-01T14:32:24.039Z,5.31
2022-12-01T14:34:59.503Z,5.28
2022-12-01T14:37:38.405Z,5.23
2022-12-01T14:40:17.077Z,5.16
2022-12-01T14:43:09.692Z,5.11
2022-12-01T14:45:48.748Z,5.04
2022-12-01T14:48:25.029Z,4.98
2022-12-01T14:51:07.006Z,4.90
2022-12-01T14:53:42.088Z,4.83
2022-12-01T14:56:15.976Z,4.77
2022-12-01T14:58:56.380Z,4.70
2022-12-01T15:01:31.357Z,4.66
2022-12-01T15:04:05.249Z,4.62
2022-12-01T15:06:38.894Z,4.58
2022-12-01T15:12:07.617Z,4.49
2022-12-01T15:14:40.336Z,4.44
2022-12-01T15:17:43.336Z,4.39
2022-12-01T15:20:31.444Z,4.34
2022-12-01T15:23:03.551Z,4.30
2022-12-01T15:25:37.161Z,4.24
2022-12-01T15:28:15.814Z,4.16
2022-12-01T15:30:49.787Z,4.10
2022-12-01T15:33:27.308Z,4.05
2022-12-01T15:36:01.322Z,4.01
2022-12-01T15:38:34.650Z,3.97
2022-12-01T15:44:00.747Z,3.92
2022-12-01T15:46:34.253Z,3.91
2022-12-01T15:49:17.575Z,3.89
2022-12-01T15:51:49.206Z,3.88
2022-12-01T15:54:24.343Z,3.87
2022-12-01T15:56:58.709Z,3.86
2022-12-01T15:59:35.131Z,3.85
2022-12-01T16:02:21.835Z,3.85
2022-12-01T16:05:03.653Z,3.84
2022-12-01T16:08:12.027Z,3.84
2022-12-01T16:10:31.328Z,3.83
2022-12-01T16:13:40.965Z,3.81
2022-12-01T16:16:29.711Z,3.78
2022-12-01T16:19:02.640Z,3.73
2022-12-01T16:21:35.662Z,3.69
2022-12-01T16:24:08.002Z,3.65
2022-12-01T16:26:47.112Z,3.61
2022-12-01T16:29:21.977Z,3.57
2022-12-01T16:34:46.576Z,3.49
2022-12-01T16:37:17.939Z,3.46
2022-12-01T16:39:48.740Z,3.44
2022-12-01T16:42:21.756Z,3.41
2022-12-01T16:44:53.334Z,3.39
2022-12-01T16:47:26.424Z,3.37
2022-12-01T16:49:56.857Z,3.35
2022-12-01T16:52:45.006Z,3.33
2022-12-01T16:55:28.281Z,3.33
2022-12-01T16:57:58.883Z,3.32
2022-12-01T17:00:29.733Z,3.32
2022-12-01T17:03:00.988Z,3.33
2022-12-01T17:05:32.027Z,3.34
2022-12-01T17:08:02.931Z,3.36
2022-12-01T17:10:33.873Z,3.38
2022-12-01T17:13:04.486Z,3.40
2022-12-01T17:15:35.281Z,3.40
2022-12-01T17:18:06.171Z,3.44
2022-12-01T17:20:36.835Z,3.46
2022-12-01T17:23:07.587Z,3.49
2022-12-01T17:25:42.906Z,3.51
2022-12-01T17:28:13.441Z,3.54
2022-12-01T17:30:44.315Z,3.56
2022-12-01T17:33:14.937Z,3.57
2022-12-01T17:35:45.583Z,3.57
2022-12-01T17:38:16.266Z,3.57
2022-12-01T17:40:47.047Z,3.57
2022-12-01T17:43:19.934Z,3.58
2022-12-01T17:45:50.477Z,3.57
2022-12-01T17:48:20.971Z,3.58
2022-12-01T17:50:51.732Z,3.58
2022-12-01T17:53:22.285Z,3.59
2022-12-01T17:55:53.848Z,3.59
2022-12-01T17:58:24.568Z,3.59
2022-12-01T18:00:55.979Z,3.60
2022-12-01T18:03:26.525Z,3.61
2022-12-01T18:06:02.479Z,3.60
2022-12-01T18:08:35.802Z,3.61
2022-12-01T18:11:10.189Z,3.62
2022-12-01T18:13:42.468Z,3.63
2022-12-01T18:16:15.516Z,3.65
2022-12-01T18:18:46.510Z,3.66
2022-12-01T18:21:23.993Z,3.67
2022-12-01T18:23:56.594Z,3.69
2022-12-01T18:26:28.169Z,3.69
2022-12-01T18:28:59.960Z,3.70
2022-12-01T18:31:31.701Z,3.70
2022-12-01T18:34:03.740Z,3.71
2022-12-01T18:36:36.919Z,3.71
2022-12-01T18:39:09.726Z,3.73
2022-12-01T18:41:40.750Z,3.73
2022-12-01T18:44:11.773Z,3.74
2022-12-01T18:46:42.525Z,3.75
2022-12-01T18:49:13.760Z,3.76
2022-12-01T18:51:44.362Z,3.76
2022-12-01T18:54:17.251Z,3.77
2022-12-01T18:56:52.292Z,3.78
2022-12-01T18:59:23.033Z,3.78
2022-12-01T19:01:54.377Z,3.78
2022-12-01T19:04:25.243Z,3.79
2022-12-01T19:06:55.976Z,3.82
2022-12-01T19:09:27.851Z,3.83
2022-12-01T19:12:00.297Z,3.84
2022-12-01T19:14:31.182Z,3.85
2022-12-01T19:17:01.531Z,3.87
2022-12-01T19:19:37.121Z,3.88
2022-12-01T19:22:08.277Z,3.90
2022-12-01T19:24:38.785Z,3.91
2022-12-01T19:27:09.192Z,3.93
2022-12-01T19:29:39.844Z,3.94
2022-12-01T19:32:11.030Z,3.95
2022-12-01T19:34:41.641Z,3.96
2022-12-01T19:37:12.389Z,3.97
2022-12-01T19:39:43.001Z,3.98
2022-12-01T19:42:14.231Z,3.99
2022-12-01T19:44:45.487Z,3.99
2022-12-01T19:47:19.147Z,3.99
2022-12-01T19:49:52.860Z,3.99
2022-12-01T19:52:23.367Z,3.99
2022-12-01T19:54:54.779Z,4.00
2022-12-01T19:57:25.484Z,4.01
2022-12-01T19:59:55.946Z,4.00
2022-12-01T20:02:29.354Z,4.00
2022-12-01T20:05:02.662Z,3.99
2022-12-01T20:07:33.362Z,3.98
2022-12-01T20:10:04.109Z,3.98
2022-12-01T20:12:35.007Z,3.98
2022-12-01T20:15:08.759Z,3.98
2022-12-01T20:17:39.766Z,3.98
2022-12-01T20:20:13.265Z,3.97
2022-12-01T20:22:44.016Z,3.96
2022-12-01T20:25:14.643Z,3.94
2022-12-01T20:27:46.159Z,3.93
2022-12-01T20:30:18.066Z,3.91
2022-12-01T20:32:48.864Z,3.89
2022-12-01T20:35:19.641Z,3.87
2022-12-01T20:37:50.216Z,3.85
2022-12-01T20:40:21.707Z,3.84
2022-12-01T20:42:50.669Z,3.83
2022-12-01T20:45:21.334Z,3.81
2022-12-01T20:47:52.047Z,3.80
2022-12-01T20:50:22.872Z,3.79
2022-12-01T20:52:53.373Z,3.78
2022-12-01T20:55:24.634Z,3.76
2022-12-01T20:57:55.176Z,3.74
2022-12-01T21:00:26.069Z,3.71
2022-12-01T21:02:57.525Z,3.70
2022-12-01T21:05:26.905Z,3.68
2022-12-01T21:07:57.604Z,3.66
2022-12-01T21:10:28.377Z,3.66
2022-12-01T21:13:24.174Z,3.64
2022-12-01T21:16:03.428Z,3.64
2022-12-01T21:18:43.283Z,3.64
2022-12-01T21:21:27.589Z,3.63
2022-12-01T21:24:11.753Z,3.62
2022-12-01T21:26:46.923Z,3.62
2022-12-01T21:29:27.740Z,3.61
2022-12-01T21:32:04.287Z,3.59
2022-12-01T21:34:37.136Z,3.58
2022-12-01T21:37:18.432Z,3.57
2022-12-01T21:39:51.004Z,3.55
2022-12-01T21:42:26.105Z,3.53
2022-12-01T21:44:58.671Z,3.50
2022-12-01T21:47:32.685Z,3.48
2022-12-01T21:50:15.575Z,3.44
2022-12-01T21:52:47.670Z,3.41
2022-12-01T21:55:37.005Z,3.38
2022-12-01T21:58:22.465Z,3.34
2022-12-01T22:00:55.213Z,3.30
2022-12-01T22:03:32.281Z,3.27
2022-12-01T22:06:28.674Z,3.26
2022-12-01T22:09:02.081Z,3.25
2022-12-01T22:11:33.526Z,3.24
2022-12-01T22:14:11.567Z,3.24
2022-12-01T22:16:44.269Z,3.24
2022-12-01T22:19:27.353Z,3.23
2022-12-01T22:22:02.729Z,3.22
2022-12-01T22:24:43.792Z,3.20
2022-12-01T22:27:32.739Z,3.19
2022-12-01T22:30:23.206Z,3.17
2022-12-01T22:33:00.246Z,3.14
2022-12-01T22:35:39.858Z,3.11
2022-12-01T22:38:35.514Z,3.09
2022-12-01T22:41:13.141Z,3.05
2022-12-01T22:43:49.036Z,3.01
2022-12-01T22:46:26.132Z,2.98
2022-12-01T22:49:00.947Z,2.94
2022-12-01T22:51:47.430Z,2.91
2022-12-01T22:54:29.869Z,2.89
2022-12-01T22:57:06.889Z,2.87
2022-12-01T22:59:39.517Z,2.86
2022-12-01T23:02:21.161Z,2.85
2022-12-01T23:04:54.080Z,2.86
2022-12-01T23:07:41.425Z,2.86
2022-12-01T23:10:16.316Z,2.86
2022-12-01T23:12:48.332Z,2.85
2022-12-01T23:15:27.987Z,2.85
2022-12-01T23:17:59.981Z,2.84
2022-12-01T23:20:34.314Z,2.83
2022-12-01T23:23:09.453Z,2.81
2022-12-01T23:25:40.743Z,2.80
2022-12-01T23:28:12.088Z,2.79
2022-12-01T23:30:42.041Z,2.77
2022-12-01T23:33:21.826Z,2.76
2022-12-01T23:35:56.045Z,2.74
2022-12-01T23:38:32.716Z,2.74
2022-12-01T23:41:07.723Z,2.76
2022-12-01T23:43:42.576Z,2.77
2022-12-01T23:46:17.142Z,2.77
2022-12-01T23:48:50.337Z,2.77
2022-12-01T23:51:24.550Z,2.76
2022-12-01T23:53:56.979Z,2.76
2022-12-01T23:56:31.995Z,2.75
2022-12-01T23:59:03.495Z,2.74
